Golden Iris — 3FZK4 — position and weather

sailwx.info

Track history (hours):
 
Tides and Currents Weather Stations Pressure Air Temp Water Temp Dewpoint Dewpoint Depression Visibility Wind Speed Wind Dir Waves Ship Positions

Golden Iris

Last reported at 2017-Jun-26 18:06 UTC. Time now 2017-Jun-27 22:37 UTC.
Position N 34°40' E 032°22'.

Length 163 m; draft 6 m.

Type: Passenger vessel. MMSI: 371771000.

Date/timePositionNaut miles runAvg speedWind from/ knotsBaromVisibWave heightAir tempDewpointWater temp
2017-Jun-26 18:06N 34°40' E 032°22'114.7
2017-Jun-26 18:00N 34°40' E 032°24'714.8
2017-Jun-26 17:30N 34°38' E 032°33'714.7
2017-Jun-26 17:00N 34°35' E 032°41'714.6
2017-Jun-26 16:31N 34°33' E 032°49'714.3
2017-Jun-26 16:01N 34°32' E 032°58'714.4
2017-Jun-26 15:30N 34°34' E 033°06'1314.5
2017-Jun-26 14:38N 34°38' E 033°21'214.6
2017-Jun-26 14:28N 34°39' E 033°24'1414.6
2017-Jun-26 13:30N 34°47' E 033°37'713.6
2017-Jun-26 13:00N 34°53' E 033°41'3 5.7
2017-Jun-26 12:30N 34°55' E 033°39'0 0.0
2017-Jun-26 12:00N 34°55' E 033°39'0 0.0
2017-Jun-26 11:27N 34°55' E 033°39'0 0.0
2017-Jun-26 11:00N 34°55' E 033°39'0 0.0
2017-Jun-26 10:30N 34°55' E 033°39'0 0.0
2017-Jun-26 10:00N 34°55' E 033°39'0 0.0
2017-Jun-26 09:30N 34°55' E 033°39'0 0.0
2017-Jun-26 09:00N 34°55' E 033°39'0 0.0
2017-Jun-26 08:30N 34°55' E 033°39'0 0.0
2017-Jun-26 08:00N 34°55' E 033°39'0 0.0
2017-Jun-26 07:30N 34°55' E 033°39'0 0.0
2017-Jun-26 06:30N 34°55' E 033°39'0 0.0
2017-Jun-26 06:00N 34°55' E 033°39'0 0.0
2017-Jun-26 05:27N 34°55' E 033°39'52 7.7
2017-Jun-25 22:45N 34°05' E 033°55'2 8.5
2017-Jun-25 22:30N 34°03' E 033°55'7 8.5
2017-Jun-25 21:38N 33°56' E 033°57'1 8.4
2017-Jun-25 21:30N 33°55' E 033°58'4 8.4
2017-Jun-25 21:00N 33°51' E 033°59'4 8.1
2017-Jun-25 20:30N 33°47' E 033°60'4 8.6
2017-Jun-25 20:00N 33°43' E 033°58'4 7.5
2017-Jun-25 19:30N 33°39' E 033°58'4 8.9
2017-Jun-25 19:00N 33°38' E 034°03'4 8.9
2017-Jun-25 18:30N 33°36' E 034°08'5 9.0
2017-Jun-25 18:00N 33°35' E 034°13'4 8.0
2017-Jun-25 17:29N 33°31' E 034°16'4 8.5
2017-Jun-25 17:00N 33°27' E 034°18'5 8.3
2017-Jun-25 16:25N 33°23' E 034°20'3 8.3
2017-Jun-25 16:00N 33°20' E 034°22'5 8.2
2017-Jun-25 15:24N 33°16' E 034°25'3 8.2
2017-Jun-25 14:59N 33°13' E 034°28'4 8.3
2017-Jun-25 14:30N 33°10' E 034°30'8 8.2
2017-Jun-25 13:30N 33°03' E 034°36'4 8.0
2017-Jun-25 13:00N 32°60' E 034°39'4 7.9
2017-Jun-25 12:30N 32°58' E 034°43'4 8.2
2017-Jun-25 12:00N 32°56' E 034°47'4 8.3
2017-Jun-25 11:30N 32°54' E 034°52'4 8.1
2017-Jun-25 11:00N 32°53' E 034°57'4 8.2
2017-Jun-25 10:30N 32°51' E 035°01'2 2.7
2017-Jun-25 09:57N 32°49' E 035°00'0 0.0
2017-Jun-25 09:30N 32°49' E 035°00'0 0.0
2017-Jun-25 09:00N 32°49' E 035°00'0 0.0
2017-Jun-25 08:30N 32°49' E 035°00'0 0.0
2017-Jun-25 08:00N 32°49' E 035°00'0 0.0
2017-Jun-25 07:30N 32°49' E 035°00'0 0.0
2017-Jun-25 07:00N 32°49' E 035°00'0 0.0
2017-Jun-25 06:30N 32°49' E 035°00'0 0.0
2017-Jun-25 06:00N 32°49' E 035°00'0 0.0
2017-Jun-25 05:30N 32°49' E 035°00'0 0.0
2017-Jun-25 05:00N 32°49' E 035°00'0 0.0
2017-Jun-25 04:30N 32°49' E 035°00'0 0.0
2017-Jun-25 04:00N 32°49' E 035°00'0 0.0
2017-Jun-25 03:30N 32°49' E 035°00'0 0.2
2017-Jun-25 03:01N 32°49' E 035°00'1 2.9
2017-Jun-25 02:30N 32°51' E 035°01'4 7.6
2017-Jun-25 02:00N 32°52' E 034°57'611.3
2017-Jun-25 01:30N 32°54' E 034°50'1812.1
2017-Jun-25 00:00N 33°01' E 034°30'712.7
2017-Jun-24 23:27N 33°07' E 034°26'712.7
2017-Jun-24 22:57N 33°13' E 034°21'612.7
2017-Jun-24 22:30N 33°17' E 034°18'612.6
2017-Jun-24 22:00N 33°23' E 034°14'612.6
2017-Jun-24 21:30N 33°28' E 034°10'612.7
2017-Jun-24 21:00N 33°34' E 034°07'712.7
2017-Jun-24 20:26N 33°40' E 034°03'613.0
2017-Jun-24 20:00N 33°45' E 033°59'713.1
2017-Jun-24 19:30N 33°51' E 033°56'613.0
2017-Jun-24 19:00N 33°57' E 033°53'713.3
2017-Jun-24 18:30N 34°03' E 033°51'813.4
2017-Jun-24 17:55N 34°11' E 033°50'513.4
2017-Jun-24 17:30N 34°17' E 033°49'713.3
2017-Jun-24 17:00N 34°23' E 033°47'713.1
2017-Jun-24 16:30N 34°30' E 033°46'713.1
2017-Jun-24 16:00N 34°36' E 033°44'713.1
2017-Jun-24 15:30N 34°43' E 033°43'713.1
2017-Jun-24 15:00N 34°49' E 033°41'7 6.9
2017-Jun-24 13:58N 34°56' E 033°38'0 0.0
2017-Jun-24 13:25N 34°56' E 033°38'0 0.0
2017-Jun-24 12:55N 34°56' E 033°38'0 0.0
2017-Jun-24 12:28N 34°56' E 033°38'0 0.0
2017-Jun-24 11:55N 34°56' E 033°38'0 0.0
2017-Jun-24 11:28N 34°56' E 033°38'0 0.0
2017-Jun-24 10:58N 34°56' E 033°38'0 0.0
2017-Jun-24 10:25N 34°56' E 033°38'0 0.0
2017-Jun-24 09:58N 34°56' E 033°38'0 0.0
2017-Jun-24 08:55N 34°56' E 033°38'0 0.0
2017-Jun-24 08:22N 34°56' E 033°38'0 0.0
2017-Jun-24 07:58N 34°56' E 033°38'0 0.0
2017-Jun-24 07:28N 34°56' E 033°38'0 0.0
2017-Jun-24 06:58N 34°56' E 033°38'0 0.0
2017-Jun-24 06:28N 34°56' E 033°38'0 0.0
2017-Jun-24 05:58N 34°56' E 033°38'0 0.0
2017-Jun-24 05:07N 34°56' E 033°39'0 1.4
2017-Jun-24 04:55N 34°56' E 033°39'2 4.6
2017-Jun-24 04:30N 34°54' E 033°41'129 8.5
2017-Jun-23 13:16N 32°56' E 034°45'5 9.0
2017-Jun-23 12:43N 32°55' E 034°50'2 9.0
2017-Jun-23 12:30N 32°55' E 034°53'4 9.0
2017-Jun-23 12:00N 32°53' E 034°57'4 7.4
2017-Jun-23 11:30N 32°51' E 035°01'1 2.8
2017-Jun-23 11:00N 32°49' E 035°00'0 0.0
2017-Jun-23 10:30N 32°49' E 035°00'0 0.0
2017-Jun-23 10:00N 32°49' E 035°00'0 0.0
2017-Jun-23 09:30N 32°49' E 035°00'0 0.0
2017-Jun-23 09:00N 32°49' E 035°00'0 0.0
2017-Jun-23 08:30N 32°49' E 035°00'0 0.0
2017-Jun-23 08:00N 32°49' E 035°00'0 0.0
2017-Jun-23 07:30N 32°49' E 035°00'0 0.0
2017-Jun-23 06:57N 32°49' E 035°00'0 0.0
2017-Jun-23 06:30N 32°49' E 035°00'0 0.0
2017-Jun-23 06:00N 32°49' E 035°00'0 0.0
2017-Jun-23 05:30N 32°49' E 035°00'0 0.0
2017-Jun-23 05:00N 32°49' E 035°00'0 0.0
2017-Jun-23 04:30N 32°49' E 035°00'1 2.9
2017-Jun-23 04:00N 32°51' E 035°01'4 8.3
2017-Jun-23 03:30N 32°53' E 034°57'712.5
2017-Jun-23 02:59N 32°54' E 034°49'5314.0
2017-Jun-22 23:13N 33°08' E 033°48'313.9
2017-Jun-22 23:00N 33°09' E 033°45'1313.8
2017-Jun-22 22:05N 33°14' E 033°31'5213.9
2017-Jun-22 18:19N 33°40' E 032°37'  
2017-Jun-18 16:34N 33°40' E 033°22'113.5
2017-Jun-18 16:29N 33°40' E 033°23'613.5
2017-Jun-18 16:00N 33°36' E 033°30'2013.7
2017-Jun-18 14:33N 33°25' E 033°50'114.1
2017-Jun-18 14:30N 33°25' E 033°51'1614.2
2017-Jun-18 13:24N 33°16' E 034°06'614.4
2017-Jun-18 13:00N 33°13' E 034°12'814.2
2017-Jun-18 12:28N 33°09' E 034°20'613.9
2017-Jun-18 12:00N 33°06' E 034°26'714.1
2017-Jun-18 11:30N 33°02' E 034°33'714.1
2017-Jun-18 11:00N 32°59' E 034°41'714.3
2017-Jun-18 10:30N 32°56' E 034°49'713.7
2017-Jun-18 10:00N 32°53' E 034°56'5 1.4
2017-Jun-18 06:29N 32°49' E 035°00'0 0.0
2017-Jun-18 05:59N 32°49' E 035°00'0 0.0
2017-Jun-18 05:29N 32°49' E 035°00'0 0.0
2017-Jun-18 04:59N 32°49' E 035°00'0 0.0
2017-Jun-18 04:29N 32°49' E 035°00'0 0.0
2017-Jun-18 03:59N 32°49' E 035°00'0 0.0
2017-Jun-18 03:29N 32°49' E 035°00'0 0.2
2017-Jun-18 03:01N 32°49' E 034°60'2 3.0
2017-Jun-18 02:30N 32°51' E 035°01'2 4.4
2017-Jun-18 02:00N 32°52' E 034°58'611.1
2017-Jun-18 01:30N 32°54' E 034°52'612.6
2017-Jun-18 01:00N 32°55' E 034°44'1312.4
2017-Jun-17 23:57N 33°01' E 034°31'612.7
2017-Jun-17 23:29N 33°06' E 034°27'612.7
2017-Jun-17 23:00N 33°11' E 034°23'812.8
2017-Jun-17 22:24N 33°17' E 034°18'512.7
2017-Jun-17 22:00N 33°22' E 034°14'912.5
2017-Jun-17 21:18N 33°29' E 034°09'412.6
2017-Jun-17 21:00N 33°33' E 034°07'2113.1
2017-Jun-17 19:25N 33°51' E 033°56'1713.2
2017-Jun-17 18:08N 34°07' E 033°49'213.5
2017-Jun-17 18:00N 34°09' E 033°49'2113.0
2017-Jun-17 16:23N 34°30' E 033°46'512.9
2017-Jun-17 16:00N 34°34' E 033°45'1812.8
2017-Jun-17 14:36N 34°52' E 033°41'4 6.4
2017-Jun-17 14:00N 34°55' E 033°39'0 0.0
2017-Jun-17 13:27N 34°55' E 033°39'0 0.0
2017-Jun-17 13:00N 34°55' E 033°39'0 0.0
2017-Jun-17 12:30N 34°55' E 033°39'0 0.0
2017-Jun-17 12:00N 34°55' E 033°39'0 0.0
2017-Jun-17 11:30N 34°55' E 033°39'0 0.0
2017-Jun-17 11:00N 34°55' E 033°39'0 0.0
2017-Jun-17 10:27N 34°55' E 033°39'0 0.0
2017-Jun-17 10:00N 34°55' E 033°39'0 0.0
2017-Jun-17 09:30N 34°55' E 033°39'0 0.0
2017-Jun-17 09:00N 34°55' E 033°39'0 0.0
2017-Jun-17 08:30N 34°55' E 033°39'0 0.0
2017-Jun-17 08:00N 34°55' E 033°39'0 0.0
2017-Jun-17 07:30N 34°55' E 033°39'0 0.0
2017-Jun-17 07:00N 34°55' E 033°39'0 0.0
2017-Jun-17 06:30N 34°55' E 033°39'0 0.0
2017-Jun-17 05:54N 34°55' E 033°39'0 0.0
2017-Jun-17 05:30N 34°55' E 033°39'27 7.3
2017-Jun-17 01:49N 34°30' E 033°47'3 9.9
2017-Jun-17 01:31N 34°27' E 033°48'5 9.6
2017-Jun-17 00:58N 34°22' E 033°50'25 8.6
2017-Jun-16 22:01N 33°60' E 034°05'0 9.2
2017-Jun-16 22:00N 33°59' E 034°05'4 9.1
2017-Jun-16 21:30N 33°56' E 034°01'7 8.5
2017-Jun-16 20:43N 33°50' E 033°59'4 8.8
2017-Jun-16 20:14N 33°45' E 033°59'3 8.6
2017-Jun-16 19:51N 33°42' E 033°59'3 8.6
2017-Jun-16 19:31N 33°39' E 033°59'4 8.4
2017-Jun-16 19:01N 33°35' E 033°60'5 8.8
2017-Jun-16 18:26N 33°32' E 034°05'  
Track history (hours):
 
Tides and Currents Weather Stations Pressure Air Temp Water Temp Dewpoint Dewpoint Depression Visibility Wind Speed Wind Dir Waves Ship Positions

Golden Iris

Last reported at 2017-Jun-26 18:06 UTC. Time now 2017-Jun-27 22:37 UTC.
Position N 34°40' E 032°22'.

Length 163 m; draft 6 m.

Type: Passenger vessel. MMSI: 371771000.

Date/timePositionNaut miles runAvg speedWind from/ knotsBaromVisibWave heightAir tempDewpointWater temp
2017-Jun-26 18:06N 34°40' E 032°22'114.7
2017-Jun-26 18:00N 34°40' E 032°24'714.8
2017-Jun-26 17:30N 34°38' E 032°33'714.7
2017-Jun-26 17:00N 34°35' E 032°41'714.6
2017-Jun-26 16:31N 34°33' E 032°49'714.3
2017-Jun-26 16:01N 34°32' E 032°58'714.4
2017-Jun-26 15:30N 34°34' E 033°06'1314.5
2017-Jun-26 14:38N 34°38' E 033°21'214.6
2017-Jun-26 14:28N 34°39' E 033°24'1414.6
2017-Jun-26 13:30N 34°47' E 033°37'713.6
2017-Jun-26 13:00N 34°53' E 033°41'3 5.7
2017-Jun-26 12:30N 34°55' E 033°39'0 0.0
2017-Jun-26 12:00N 34°55' E 033°39'0 0.0
2017-Jun-26 11:27N 34°55' E 033°39'0 0.0
2017-Jun-26 11:00N 34°55' E 033°39'0 0.0
2017-Jun-26 10:30N 34°55' E 033°39'0 0.0
2017-Jun-26 10:00N 34°55' E 033°39'0 0.0
2017-Jun-26 09:30N 34°55' E 033°39'0 0.0
2017-Jun-26 09:00N 34°55' E 033°39'0 0.0
2017-Jun-26 08:30N 34°55' E 033°39'0 0.0
2017-Jun-26 08:00N 34°55' E 033°39'0 0.0
2017-Jun-26 07:30N 34°55' E 033°39'0 0.0
2017-Jun-26 06:30N 34°55' E 033°39'0 0.0
2017-Jun-26 06:00N 34°55' E 033°39'0 0.0
2017-Jun-26 05:27N 34°55' E 033°39'52 7.7
2017-Jun-25 22:45N 34°05' E 033°55'2 8.5
2017-Jun-25 22:30N 34°03' E 033°55'7 8.5
2017-Jun-25 21:38N 33°56' E 033°57'1 8.4
2017-Jun-25 21:30N 33°55' E 033°58'4 8.4
2017-Jun-25 21:00N 33°51' E 033°59'4 8.1
2017-Jun-25 20:30N 33°47' E 033°60'4 8.6
2017-Jun-25 20:00N 33°43' E 033°58'4 7.5
2017-Jun-25 19:30N 33°39' E 033°58'4 8.9
2017-Jun-25 19:00N 33°38' E 034°03'4 8.9
2017-Jun-25 18:30N 33°36' E 034°08'5 9.0
2017-Jun-25 18:00N 33°35' E 034°13'4 8.0
2017-Jun-25 17:29N 33°31' E 034°16'4 8.5
2017-Jun-25 17:00N 33°27' E 034°18'5 8.3
2017-Jun-25 16:25N 33°23' E 034°20'3 8.3
2017-Jun-25 16:00N 33°20' E 034°22'5 8.2
2017-Jun-25 15:24N 33°16' E 034°25'3 8.2
2017-Jun-25 14:59N 33°13' E 034°28'4 8.3
2017-Jun-25 14:30N 33°10' E 034°30'8 8.2
2017-Jun-25 13:30N 33°03' E 034°36'4 8.0
2017-Jun-25 13:00N 32°60' E 034°39'4 7.9
2017-Jun-25 12:30N 32°58' E 034°43'4 8.2
2017-Jun-25 12:00N 32°56' E 034°47'4 8.3
2017-Jun-25 11:30N 32°54' E 034°52'4 8.1
2017-Jun-25 11:00N 32°53' E 034°57'4 8.2
2017-Jun-25 10:30N 32°51' E 035°01'2 2.7
2017-Jun-25 09:57N 32°49' E 035°00'0 0.0
2017-Jun-25 09:30N 32°49' E 035°00'0 0.0
2017-Jun-25 09:00N 32°49' E 035°00'0 0.0
2017-Jun-25 08:30N 32°49' E 035°00'0 0.0
2017-Jun-25 08:00N 32°49' E 035°00'0 0.0
2017-Jun-25 07:30N 32°49' E 035°00'0 0.0
2017-Jun-25 07:00N 32°49' E 035°00'0 0.0
2017-Jun-25 06:30N 32°49' E 035°00'0 0.0
2017-Jun-25 06:00N 32°49' E 035°00'0 0.0
2017-Jun-25 05:30N 32°49' E 035°00'0 0.0
2017-Jun-25 05:00N 32°49' E 035°00'0 0.0
2017-Jun-25 04:30N 32°49' E 035°00'0 0.0
2017-Jun-25 04:00N 32°49' E 035°00'0 0.0
2017-Jun-25 03:30N 32°49' E 035°00'0 0.2
2017-Jun-25 03:01N 32°49' E 035°00'1 2.9
2017-Jun-25 02:30N 32°51' E 035°01'4 7.6
2017-Jun-25 02:00N 32°52' E 034°57'611.3
2017-Jun-25 01:30N 32°54' E 034°50'1812.1
2017-Jun-25 00:00N 33°01' E 034°30'712.7
2017-Jun-24 23:27N 33°07' E 034°26'712.7
2017-Jun-24 22:57N 33°13' E 034°21'612.7
2017-Jun-24 22:30N 33°17' E 034°18'612.6
2017-Jun-24 22:00N 33°23' E 034°14'612.6
2017-Jun-24 21:30N 33°28' E 034°10'612.7
2017-Jun-24 21:00N 33°34' E 034°07'712.7
2017-Jun-24 20:26N 33°40' E 034°03'613.0
2017-Jun-24 20:00N 33°45' E 033°59'713.1
2017-Jun-24 19:30N 33°51' E 033°56'613.0
2017-Jun-24 19:00N 33°57' E 033°53'713.3
2017-Jun-24 18:30N 34°03' E 033°51'813.4
2017-Jun-24 17:55N 34°11' E 033°50'513.4
2017-Jun-24 17:30N 34°17' E 033°49'713.3
2017-Jun-24 17:00N 34°23' E 033°47'713.1
2017-Jun-24 16:30N 34°30' E 033°46'713.1
2017-Jun-24 16:00N 34°36' E 033°44'713.1
2017-Jun-24 15:30N 34°43' E 033°43'713.1
2017-Jun-24 15:00N 34°49' E 033°41'7 6.9
2017-Jun-24 13:58N 34°56' E 033°38'0 0.0
2017-Jun-24 13:25N 34°56' E 033°38'0 0.0
2017-Jun-24 12:55N 34°56' E 033°38'0 0.0
2017-Jun-24 12:28N 34°56' E 033°38'0 0.0
2017-Jun-24 11:55N 34°56' E 033°38'0 0.0
2017-Jun-24 11:28N 34°56' E 033°38'0 0.0
2017-Jun-24 10:58N 34°56' E 033°38'0 0.0
2017-Jun-24 10:25N 34°56' E 033°38'0 0.0
2017-Jun-24 09:58N 34°56' E 033°38'0 0.0
2017-Jun-24 08:55N 34°56' E 033°38'0 0.0
2017-Jun-24 08:22N 34°56' E 033°38'0 0.0
2017-Jun-24 07:58N 34°56' E 033°38'0 0.0
2017-Jun-24 07:28N 34°56' E 033°38'0 0.0
2017-Jun-24 06:58N 34°56' E 033°38'0 0.0
2017-Jun-24 06:28N 34°56' E 033°38'0 0.0
2017-Jun-24 05:58N 34°56' E 033°38'0 0.0
2017-Jun-24 05:07N 34°56' E 033°39'0 1.4
2017-Jun-24 04:55N 34°56' E 033°39'2 4.6
2017-Jun-24 04:30N 34°54' E 033°41'129 8.5
2017-Jun-23 13:16N 32°56' E 034°45'5 9.0
2017-Jun-23 12:43N 32°55' E 034°50'2 9.0
2017-Jun-23 12:30N 32°55' E 034°53'4 9.0
2017-Jun-23 12:00N 32°53' E 034°57'4 7.4
2017-Jun-23 11:30N 32°51' E 035°01'1 2.8
2017-Jun-23 11:00N 32°49' E 035°00'0 0.0
2017-Jun-23 10:30N 32°49' E 035°00'0 0.0
2017-Jun-23 10:00N 32°49' E 035°00'0 0.0
2017-Jun-23 09:30N 32°49' E 035°00'0 0.0
2017-Jun-23 09:00N 32°49' E 035°00'0 0.0
2017-Jun-23 08:30N 32°49' E 035°00'0 0.0
2017-Jun-23 08:00N 32°49' E 035°00'0 0.0
2017-Jun-23 07:30N 32°49' E 035°00'0 0.0
2017-Jun-23 06:57N 32°49' E 035°00'0 0.0
2017-Jun-23 06:30N 32°49' E 035°00'0 0.0
2017-Jun-23 06:00N 32°49' E 035°00'0 0.0
2017-Jun-23 05:30N 32°49' E 035°00'0 0.0
2017-Jun-23 05:00N 32°49' E 035°00'0 0.0
2017-Jun-23 04:30N 32°49' E 035°00'1 2.9
2017-Jun-23 04:00N 32°51' E 035°01'4 8.3
2017-Jun-23 03:30N 32°53' E 034°57'712.5
2017-Jun-23 02:59N 32°54' E 034°49'5314.0
2017-Jun-22 23:13N 33°08' E 033°48'313.9
2017-Jun-22 23:00N 33°09' E 033°45'1313.8
2017-Jun-22 22:05N 33°14' E 033°31'5213.9
2017-Jun-22 18:19N 33°40' E 032°37'  
2017-Jun-18 16:34N 33°40' E 033°22'113.5
2017-Jun-18 16:29N 33°40' E 033°23'613.5
2017-Jun-18 16:00N 33°36' E 033°30'2013.7
2017-Jun-18 14:33N 33°25' E 033°50'114.1
2017-Jun-18 14:30N 33°25' E 033°51'1614.2
2017-Jun-18 13:24N 33°16' E 034°06'614.4
2017-Jun-18 13:00N 33°13' E 034°12'814.2
2017-Jun-18 12:28N 33°09' E 034°20'613.9
2017-Jun-18 12:00N 33°06' E 034°26'714.1
2017-Jun-18 11:30N 33°02' E 034°33'714.1
2017-Jun-18 11:00N 32°59' E 034°41'714.3
2017-Jun-18 10:30N 32°56' E 034°49'713.7
2017-Jun-18 10:00N 32°53' E 034°56'5 1.4
2017-Jun-18 06:29N 32°49' E 035°00'0 0.0
2017-Jun-18 05:59N 32°49' E 035°00'0 0.0
2017-Jun-18 05:29N 32°49' E 035°00'0 0.0
2017-Jun-18 04:59N 32°49' E 035°00'0 0.0
2017-Jun-18 04:29N 32°49' E 035°00'0 0.0
2017-Jun-18 03:59N 32°49' E 035°00'0 0.0
2017-Jun-18 03:29N 32°49' E 035°00'0 0.2
2017-Jun-18 03:01N 32°49' E 034°60'2 3.0
2017-Jun-18 02:30N 32°51' E 035°01'2 4.4
2017-Jun-18 02:00N 32°52' E 034°58'611.1
2017-Jun-18 01:30N 32°54' E 034°52'612.6
2017-Jun-18 01:00N 32°55' E 034°44'1312.4
2017-Jun-17 23:57N 33°01' E 034°31'612.7
2017-Jun-17 23:29N 33°06' E 034°27'612.7
2017-Jun-17 23:00N 33°11' E 034°23'812.8
2017-Jun-17 22:24N 33°17' E 034°18'512.7
2017-Jun-17 22:00N 33°22' E 034°14'912.5
2017-Jun-17 21:18N 33°29' E 034°09'412.6
2017-Jun-17 21:00N 33°33' E 034°07'2113.1
2017-Jun-17 19:25N 33°51' E 033°56'1713.2
2017-Jun-17 18:08N 34°07' E 033°49'213.5
2017-Jun-17 18:00N 34°09' E 033°49'2113.0
2017-Jun-17 16:23N 34°30' E 033°46'512.9
2017-Jun-17 16:00N 34°34' E 033°45'1812.8
2017-Jun-17 14:36N 34°52' E 033°41'4 6.4
2017-Jun-17 14:00N 34°55' E 033°39'0 0.0
2017-Jun-17 13:27N 34°55' E 033°39'0 0.0
2017-Jun-17 13:00N 34°55' E 033°39'0 0.0
2017-Jun-17 12:30N 34°55' E 033°39'0 0.0
2017-Jun-17 12:00N 34°55' E 033°39'0 0.0
2017-Jun-17 11:30N 34°55' E 033°39'0 0.0
2017-Jun-17 11:00N 34°55' E 033°39'0 0.0
2017-Jun-17 10:27N 34°55' E 033°39'0 0.0
2017-Jun-17 10:00N 34°55' E 033°39'0 0.0
2017-Jun-17 09:30N 34°55' E 033°39'0 0.0
2017-Jun-17 09:00N 34°55' E 033°39'0 0.0
2017-Jun-17 08:30N 34°55' E 033°39'0 0.0
2017-Jun-17 08:00N 34°55' E 033°39'0 0.0
2017-Jun-17 07:30N 34°55' E 033°39'0 0.0
2017-Jun-17 07:00N 34°55' E 033°39'0 0.0
2017-Jun-17 06:30N 34°55' E 033°39'0 0.0
2017-Jun-17 05:54N 34°55' E 033°39'0 0.0
2017-Jun-17 05:30N 34°55' E 033°39'27 7.3
2017-Jun-17 01:49N 34°30' E 033°47'3 9.9
2017-Jun-17 01:31N 34°27' E 033°48'5 9.6
2017-Jun-17 00:58N 34°22' E 033°50'25 8.6
2017-Jun-16 22:01N 33°60' E 034°05'0 9.2
2017-Jun-16 22:00N 33°59' E 034°05'4 9.1
2017-Jun-16 21:30N 33°56' E 034°01'7 8.5
2017-Jun-16 20:43N 33°50' E 033°59'4 8.8
2017-Jun-16 20:14N 33°45' E 033°59'3 8.6
2017-Jun-16 19:51N 33°42' E 033°59'3 8.6
2017-Jun-16 19:31N 33°39' E 033°59'4 8.4
2017-Jun-16 19:01N 33°35' E 033°60'5 8.8
2017-Jun-16 18:26N 33°32' E 034°05'  

Dump ship's entire track history